A- A+ FrançaisEnglishEspañol中国

le plus proche LFBT Tarbes-Lourdes-PyrénéesLFOH Le-Havre-OctevilleLFAQ Albert-BrayLFAG Peronne-Saint-Quentin

manche à air

La météo aéronautique pour les pilotes, la préparation du vol avec les METAR (METeorological Aerodrome Report, message d'observation des conditions météorologiques pour l'aviation) et Les TAF (Terminal Aerodrome Forecast : message de prévision à court terme des conditions météorologiques pour l'aviation). Et les autres ressources comme les VAC (Visual Approch Chart) et les NOTAM (Notice To Airman) pour préprer les vols.

Aéroport Scatsta (Royaume-Uni) / OACI EGPM/ IATA SCS

L'altitude de l'aéroport Scatsta est de 25 m=82 ft. Il est situé à proximité de Shetland Islands (Royaume-Uni). La météo générale à 5 jours est disponible pour Pierowall situé à 155.8 km.

METAR de l'aéroport Scatsta - EGPM

EGPM 291050Z AUTO 36009KT 9999 OVC005/// 12/10 Q1001

Décodage du METAR de l'aéroport Scatsta (GB)

METAR émis par EGPM le dimanche 29 septembre 2019 à 10:50 heure TU. C'est un METAR généré automatiquement. Attention ce METAR est obsolète car il a été émis il y a 15 heure et 18 minutes.

La visibilité est de supérieure à 10 km=supérieure à 6.2 sm.

La température est de 12°C=54 °F et le point rosée est de 10°C=50 °F . Ce qui correspond à 88% d'humidité relative.

Le QNH est de 1001 hPa=29.56 inHg

Vent de 9 kt=17 km/h, orienté à 360°.

Nuages : Couverture nuageuse soudée à 500 ft=150 mètres.

TAF de l'aéroport Scatsta - EGPM

EGPM 290730Z 2907/2915 36009KT 9999 SCT010 TEMPO 2907/2909 6000 BKN004 TEMPO 2909/2915 BKN012 PROB40 TEMPO 2909/2915 6000 RADZ BKN006

EGPM 290730Z 2907/2915 36009KT 9999 nuages épars à 010 temporairement 2907/2909 6000 couverture nuageuse fragmentée à 004 temporairement 2909/2915 couverture nuageuse fragmentée à 012 probabilité de 40% d'avoir temporairement 2909/2915 6000 pluie DZ couverture nuageuse fragmentée à 006

Aéroport à proximité de Scatsta

Météo générale à 5 jours à Pierowall (155.8 km)EGEH Aéroport Whalsay (21 km)EGET Aéroport Lerwick (27 km)EGPB Aéroport Sumburgh (62 km)EGEF Aéroport Fair Isle (101 km)EGEN Aéroport North Ronaldsay (134 km)EGES Aéroport Sanday (150 km)

Vue aérienne de l'aéroport Scatsta

NOTAM de l'aéroport Scatsta

Les NOTAM sont fournis sans aucune garantie de leur actualité. Le pilote est le seul responsable de la vérification de sa validité avant de l'utiliser opérationnellement pour préparer un vol ou l'utiliser lors de sa navigation.

Pas de NOTAM

Sources des données